sensor_id;sensor_type;location;lat;lon;timestamp;P1;durP1;ratioP1;P2;durP2;ratioP2
75700;SDS011;64321;48.796;44.740;2023-04-03T00:05:29;8.27;;;4.45;;
75700;SDS011;64321;48.796;44.740;2023-04-03T00:16:55;10.48;;;3.90;;
75700;SDS011;64321;48.796;44.740;2023-04-03T00:22:45;7.95;;;4.07;;
75700;SDS011;64321;48.796;44.740;2023-04-03T00:28:00;7.13;;;2.60;;
75700;SDS011;64321;48.796;44.740;2023-04-03T00:39:42;8.80;;;3.55;;
75700;SDS011;64321;48.796;44.740;2023-04-03T00:45:45;11.77;;;4.35;;
75700;SDS011;64321;48.796;44.740;2023-04-03T00:51:32;10.98;;;3.63;;
75700;SDS011;64321;48.796;44.740;2023-04-03T00:57:07;9.38;;;3.72;;
75700;SDS011;64321;48.796;44.740;2023-04-03T01:02:59;9.68;;;3.70;;
75700;SDS011;64321;48.796;44.740;2023-04-03T01:08:44;10.70;;;3.30;;
75700;SDS011;64321;48.796;44.740;2023-04-03T01:14:18;8.38;;;2.70;;
75700;SDS011;64321;48.796;44.740;2023-04-03T01:25:51;12.63;;;3.25;;
75700;SDS011;64321;48.796;44.740;2023-04-03T01:31:51;11.18;;;3.50;;
75700;SDS011;64321;48.796;44.740;2023-04-03T01:37:38;11.02;;;3.00;;
75700;SDS011;64321;48.796;44.740;2023-04-03T01:43:08;12.93;;;2.85;;
75700;SDS011;64321;48.796;44.740;2023-04-03T01:48:50;17.38;;;4.15;;
75700;SDS011;64321;48.796;44.740;2023-04-03T01:54:29;17.55;;;5.13;;
75700;SDS011;64321;48.796;44.740;2023-04-03T01:59:53;17.77;;;5.00;;
75700;SDS011;64321;48.796;44.740;2023-04-03T02:05:26;31.20;;;8.30;;
75700;SDS011;64321;48.796;44.740;2023-04-03T02:11:40;17.40;;;5.85;;
75700;SDS011;64321;48.796;44.740;2023-04-03T02:23:26;12.50;;;2.78;;
75700;SDS011;64321;48.796;44.740;2023-04-03T02:29:00;9.25;;;2.42;;
75700;SDS011;64321;48.796;44.740;2023-04-03T02:34:33;8.02;;;2.10;;
75700;SDS011;64321;48.796;44.740;2023-04-03T02:40:03;12.43;;;3.85;;
75700;SDS011;64321;48.796;44.740;2023-04-03T02:45:50;27.90;;;6.80;;
75700;SDS011;64321;48.796;44.740;2023-04-03T02:51:41;20.10;;;6.80;;
75700;SDS011;64321;48.796;44.740;2023-04-03T02:57:44;12.95;;;5.93;;
75700;SDS011;64321;48.796;44.740;2023-04-03T03:03:41;17.83;;;6.93;;
75700;SDS011;64321;48.796;44.740;2023-04-03T03:15:39;13.85;;;3.30;;
75700;SDS011;64321;48.796;44.740;2023-04-03T03:27:18;12.57;;;3.22;;
75700;SDS011;64321;48.796;44.740;2023-04-03T03:32:37;11.20;;;3.58;;
75700;SDS011;64321;48.796;44.740;2023-04-03T03:44:38;19.10;;;2.88;;
75700;SDS011;64321;48.796;44.740;2023-04-03T03:50:10;14.68;;;3.08;;
75700;SDS011;64321;48.796;44.740;2023-04-03T03:56:12;20.35;;;6.75;;
75700;SDS011;64321;48.796;44.740;2023-04-03T04:02:10;25.92;;;7.28;;
75700;SDS011;64321;48.796;44.740;2023-04-03T04:07:32;20.30;;;7.65;;
75700;SDS011;64321;48.796;44.740;2023-04-03T04:12:45;28.73;;;9.40;;
75700;SDS011;64321;48.796;44.740;2023-04-03T04:18:43;37.38;;;10.35;;
75700;SDS011;64321;48.796;44.740;2023-04-03T04:24:02;29.15;;;9.13;;
75700;SDS011;64321;48.796;44.740;2023-04-03T04:29:26;27.83;;;9.77;;
75700;SDS011;64321;48.796;44.740;2023-04-03T04:34:53;18.38;;;5.50;;
75700;SDS011;64321;48.796;44.740;2023-04-03T04:40:32;16.40;;;3.20;;
75700;SDS011;64321;48.796;44.740;2023-04-03T04:46:00;14.75;;;3.78;;
75700;SDS011;64321;48.796;44.740;2023-04-03T04:51:27;22.98;;;3.22;;
75700;SDS011;64321;48.796;44.740;2023-04-03T04:57:20;22.65;;;4.70;;
75700;SDS011;64321;48.796;44.740;2023-04-03T05:02:47;26.95;;;5.50;;
75700;SDS011;64321;48.796;44.740;2023-04-03T05:08:27;46.03;;;12.07;;
75700;SDS011;64321;48.796;44.740;2023-04-03T05:14:21;62.22;;;17.75;;
75700;SDS011;64321;48.796;44.740;2023-04-03T05:20:04;60.58;;;18.23;;
75700;SDS011;64321;48.796;44.740;2023-04-03T05:26:21;64.50;;;18.35;;
75700;SDS011;64321;48.796;44.740;2023-04-03T05:32:15;85.15;;;25.73;;
75700;SDS011;64321;48.796;44.740;2023-04-03T05:37:48;104.70;;;33.65;;
75700;SDS011;64321;48.796;44.740;2023-04-03T05:43:25;104.32;;;29.25;;
75700;SDS011;64321;48.796;44.740;2023-04-03T05:49:03;31.70;;;10.90;;
75700;SDS011;64321;48.796;44.740;2023-04-03T05:55:08;23.05;;;6.53;;
75700;SDS011;64321;48.796;44.740;2023-04-03T06:00:34;19.15;;;5.20;;
75700;SDS011;64321;48.796;44.740;2023-04-03T06:06:14;28.20;;;7.03;;
75700;SDS011;64321;48.796;44.740;2023-04-03T06:11:25;23.48;;;6.05;;
75700;SDS011;64321;48.796;44.740;2023-04-03T06:16:38;25.98;;;6.85;;
75700;SDS011;64321;48.796;44.740;2023-04-03T06:21:46;27.20;;;6.88;;
75700;SDS011;64321;48.796;44.740;2023-04-03T06:27:03;22.60;;;5.88;;
75700;SDS011;64321;48.796;44.740;2023-04-03T06:32:17;22.98;;;6.40;;
75700;SDS011;64321;48.796;44.740;2023-04-03T06:37:29;25.25;;;6.07;;
75700;SDS011;64321;48.796;44.740;2023-04-03T06:43:05;35.72;;;8.20;;
75700;SDS011;64321;48.796;44.740;2023-04-03T06:48:07;33.08;;;7.93;;
75700;SDS011;64321;48.796;44.740;2023-04-03T06:53:38;36.53;;;8.07;;
75700;SDS011;64321;48.796;44.740;2023-04-03T06:58:40;32.10;;;8.45;;
75700;SDS011;64321;48.796;44.740;2023-04-03T07:03:43;36.75;;;10.50;;
75700;SDS011;64321;48.796;44.740;2023-04-03T07:08:46;40.60;;;9.65;;
75700;SDS011;64321;48.796;44.740;2023-04-03T07:13:50;40.67;;;8.82;;
75700;SDS011;64321;48.796;44.740;2023-04-03T07:18:52;34.75;;;7.57;;
75700;SDS011;64321;48.796;44.740;2023-04-03T07:23:55;33.60;;;8.57;;
75700;SDS011;64321;48.796;44.740;2023-04-03T07:28:57;39.95;;;8.32;;
75700;SDS011;64321;48.796;44.740;2023-04-03T07:33:59;44.97;;;8.05;;
75700;SDS011;64321;48.796;44.740;2023-04-03T07:39:01;35.83;;;8.05;;
75700;SDS011;64321;48.796;44.740;2023-04-03T07:44:04;35.00;;;8.13;;
75700;SDS011;64321;48.796;44.740;2023-04-03T07:49:07;44.40;;;8.57;;
75700;SDS011;64321;48.796;44.740;2023-04-03T07:54:10;32.25;;;5.93;;
75700;SDS011;64321;48.796;44.740;2023-04-03T07:59:12;39.45;;;6.15;;
75700;SDS011;64321;48.796;44.740;2023-04-03T08:04:14;31.02;;;6.05;;
75700;SDS011;64321;48.796;44.740;2023-04-03T08:09:17;45.08;;;6.50;;
75700;SDS011;64321;48.796;44.740;2023-04-03T08:14:20;32.47;;;6.85;;
75700;SDS011;64321;48.796;44.740;2023-04-03T08:19:22;36.95;;;5.88;;
75700;SDS011;64321;48.796;44.740;2023-04-03T08:24:27;33.53;;;6.07;;
75700;SDS011;64321;48.796;44.740;2023-04-03T08:29:29;41.10;;;7.30;;
75700;SDS011;64321;48.796;44.740;2023-04-03T08:34:34;38.92;;;7.35;;
75700;SDS011;64321;48.796;44.740;2023-04-03T08:39:37;53.17;;;7.65;;
75700;SDS011;64321;48.796;44.740;2023-04-03T08:49:42;42.65;;;4.60;;
75700;SDS011;64321;48.796;44.740;2023-04-03T08:54:53;38.72;;;4.10;;
75700;SDS011;64321;48.796;44.740;2023-04-03T09:00:03;28.27;;;2.45;;
75700;SDS011;64321;48.796;44.740;2023-04-03T09:06:26;34.17;;;2.83;;
75700;SDS011;64321;48.796;44.740;2023-04-03T09:29:27;25.70;;;2.38;;
75700;SDS011;64321;48.796;44.740;2023-04-03T09:40:45;28.00;;;2.25;;
75700;SDS011;64321;48.796;44.740;2023-04-03T09:46:32;39.17;;;3.50;;
75700;SDS011;64321;48.796;44.740;2023-04-03T09:52:41;39.38;;;3.08;;
75700;SDS011;64321;48.796;44.740;2023-04-03T09:58:38;31.33;;;2.25;;
75700;SDS011;64321;48.796;44.740;2023-04-03T10:10:30;35.17;;;2.50;;
75700;SDS011;64321;48.796;44.740;2023-04-03T10:16:52;32.10;;;3.67;;
75700;SDS011;64321;48.796;44.740;2023-04-03T10:45:52;41.50;;;4.07;;
75700;SDS011;64321;48.796;44.740;2023-04-03T10:51:29;26.50;;;2.83;;
75700;SDS011;64321;48.796;44.740;2023-04-03T10:57:01;29.27;;;2.20;;
75700;SDS011;64321;48.796;44.740;2023-04-03T11:13:52;37.65;;;4.20;;
75700;SDS011;64321;48.796;44.740;2023-04-03T11:19:17;33.60;;;3.30;;
75700;SDS011;64321;48.796;44.740;2023-04-03T11:36:31;39.85;;;4.80;;
75700;SDS011;64321;48.796;44.740;2023-04-03T11:42:41;42.60;;;5.75;;
75700;SDS011;64321;48.796;44.740;2023-04-03T12:15:16;32.33;;;4.40;;
75700;SDS011;64321;48.796;44.740;2023-04-03T12:20:53;42.38;;;3.58;;
75700;SDS011;64321;48.796;44.740;2023-04-03T12:26:21;42.22;;;4.20;;
75700;SDS011;64321;48.796;44.740;2023-04-03T12:37:48;35.20;;;3.97;;
75700;SDS011;64321;48.796;44.740;2023-04-03T12:49:59;50.83;;;4.90;;
75700;SDS011;64321;48.796;44.740;2023-04-03T12:55:25;41.75;;;4.47;;
75700;SDS011;64321;48.796;44.740;2023-04-03T13:01:10;37.67;;;3.60;;
75700;SDS011;64321;48.796;44.740;2023-04-03T13:06:39;39.17;;;4.38;;
75700;SDS011;64321;48.796;44.740;2023-04-03T13:12:14;43.35;;;4.55;;
75700;SDS011;64321;48.796;44.740;2023-04-03T13:17:45;37.13;;;3.97;;
75700;SDS011;64321;48.796;44.740;2023-04-03T13:23:02;32.25;;;3.42;;
75700;SDS011;64321;48.796;44.740;2023-04-03T13:28:21;31.33;;;2.33;;
75700;SDS011;64321;48.796;44.740;2023-04-03T13:34:19;48.00;;;3.00;;
75700;SDS011;64321;48.796;44.740;2023-04-03T13:39:38;40.50;;;4.25;;
75700;SDS011;64321;48.796;44.740;2023-04-03T13:51:37;54.65;;;3.45;;
75700;SDS011;64321;48.796;44.740;2023-04-03T13:57:35;42.50;;;4.75;;
75700;SDS011;64321;48.796;44.740;2023-04-03T14:03:31;38.10;;;2.88;;
75700;SDS011;64321;48.796;44.740;2023-04-03T14:09:29;47.85;;;5.53;;
75700;SDS011;64321;48.796;44.740;2023-04-03T14:15:24;35.85;;;3.00;;
75700;SDS011;64321;48.796;44.740;2023-04-03T14:21:30;37.80;;;2.53;;
75700;SDS011;64321;48.796;44.740;2023-04-03T14:26:33;42.70;;;3.03;;
75700;SDS011;64321;48.796;44.740;2023-04-03T14:31:39;38.42;;;2.65;;
75700;SDS011;64321;48.796;44.740;2023-04-03T14:36:46;41.72;;;2.88;;
75700;SDS011;64321;48.796;44.740;2023-04-03T14:41:52;41.70;;;3.03;;
75700;SDS011;64321;48.796;44.740;2023-04-03T14:46:59;40.50;;;3.65;;
75700;SDS011;64321;48.796;44.740;2023-04-03T14:52:22;47.30;;;3.38;;
75700;SDS011;64321;48.796;44.740;2023-04-03T14:57:39;50.92;;;4.15;;
75700;SDS011;64321;48.796;44.740;2023-04-03T15:02:58;39.72;;;4.10;;
75700;SDS011;64321;48.796;44.740;2023-04-03T15:08:32;36.97;;;3.55;;
75700;SDS011;64321;48.796;44.740;2023-04-03T15:13:58;34.88;;;3.28;;
75700;SDS011;64321;48.796;44.740;2023-04-03T15:19:15;34.35;;;2.90;;
75700;SDS011;64321;48.796;44.740;2023-04-03T15:25:11;38.15;;;2.92;;
75700;SDS011;64321;48.796;44.740;2023-04-03T15:30:41;36.42;;;2.95;;
75700;SDS011;64321;48.796;44.740;2023-04-03T15:35:57;32.42;;;3.53;;
75700;SDS011;64321;48.796;44.740;2023-04-03T15:53:14;30.95;;;2.50;;
75700;SDS011;64321;48.796;44.740;2023-04-03T15:58:42;37.22;;;3.70;;
75700;SDS011;64321;48.796;44.740;2023-04-03T16:03:59;47.30;;;4.13;;
75700;SDS011;64321;48.796;44.740;2023-04-03T16:10:21;42.58;;;3.78;;
75700;SDS011;64321;48.796;44.740;2023-04-03T16:16:13;37.72;;;3.63;;
75700;SDS011;64321;48.796;44.740;2023-04-03T16:21:54;43.15;;;3.90;;
75700;SDS011;64321;48.796;44.740;2023-04-03T16:27:29;41.30;;;3.95;;
75700;SDS011;64321;48.796;44.740;2023-04-03T16:32:53;31.77;;;4.32;;
75700;SDS011;64321;48.796;44.740;2023-04-03T16:38:41;31.63;;;5.45;;
75700;SDS011;64321;48.796;44.740;2023-04-03T16:43:53;42.92;;;6.07;;
75700;SDS011;64321;48.796;44.740;2023-04-03T16:49:15;42.45;;;5.20;;
75700;SDS011;64321;48.796;44.740;2023-04-03T16:55:02;33.83;;;5.80;;
75700;SDS011;64321;48.796;44.740;2023-04-03T17:00:38;42.22;;;5.90;;
75700;SDS011;64321;48.796;44.740;2023-04-03T17:05:58;37.35;;;5.53;;
75700;SDS011;64321;48.796;44.740;2023-04-03T17:11:34;32.42;;;5.35;;
75700;SDS011;64321;48.796;44.740;2023-04-03T17:23:05;33.92;;;3.80;;
75700;SDS011;64321;48.796;44.740;2023-04-03T17:28:31;28.65;;;4.65;;
75700;SDS011;64321;48.796;44.740;2023-04-03T17:33:54;36.60;;;6.68;;
75700;SDS011;64321;48.796;44.740;2023-04-03T17:39:50;29.38;;;4.00;;
75700;SDS011;64321;48.796;44.740;2023-04-03T17:50:36;27.67;;;4.60;;
75700;SDS011;64321;48.796;44.740;2023-04-03T17:56:22;24.30;;;4.00;;
75700;SDS011;64321;48.796;44.740;2023-04-03T18:01:47;30.90;;;3.88;;
75700;SDS011;64321;48.796;44.740;2023-04-03T18:07:31;31.10;;;3.88;;
75700;SDS011;64321;48.796;44.740;2023-04-03T18:12:59;28.88;;;3.90;;
75700;SDS011;64321;48.796;44.740;2023-04-03T18:18:27;25.35;;;4.20;;
75700;SDS011;64321;48.796;44.740;2023-04-03T18:29:51;40.08;;;5.70;;
75700;SDS011;64321;48.796;44.740;2023-04-03T18:35:43;28.58;;;4.93;;
75700;SDS011;64321;48.796;44.740;2023-04-03T18:41:17;32.10;;;6.03;;
75700;SDS011;64321;48.796;44.740;2023-04-03T18:46:47;28.35;;;5.50;;
75700;SDS011;64321;48.796;44.740;2023-04-03T18:52:49;34.88;;;6.07;;
75700;SDS011;64321;48.796;44.740;2023-04-03T18:58:19;24.63;;;6.38;;
75700;SDS011;64321;48.796;44.740;2023-04-03T19:03:53;35.78;;;5.68;;
75700;SDS011;64321;48.796;44.740;2023-04-03T19:09:32;36.92;;;5.50;;
75700;SDS011;64321;48.796;44.740;2023-04-03T19:14:48;31.73;;;5.72;;
75700;SDS011;64321;48.796;44.740;2023-04-03T19:20:27;23.92;;;5.32;;
75700;SDS011;64321;48.796;44.740;2023-04-03T19:26:21;21.40;;;4.45;;
75700;SDS011;64321;48.796;44.740;2023-04-03T19:32:00;25.60;;;5.95;;
75700;SDS011;64321;48.796;44.740;2023-04-03T19:43:35;18.33;;;3.83;;
75700;SDS011;64321;48.796;44.740;2023-04-03T19:55:20;10.15;;;2.65;;
75700;SDS011;64321;48.796;44.740;2023-04-03T20:01:23;10.73;;;2.53;;
75700;SDS011;64321;48.796;44.740;2023-04-03T20:06:52;11.55;;;2.40;;
75700;SDS011;64321;48.796;44.740;2023-04-03T20:12:24;13.30;;;2.53;;
75700;SDS011;64321;48.796;44.740;2023-04-03T20:17:45;9.35;;;3.33;;
75700;SDS011;64321;48.796;44.740;2023-04-03T20:23:22;20.67;;;3.60;;
75700;SDS011;64321;48.796;44.740;2023-04-03T20:29:27;14.93;;;3.03;;
75700;SDS011;64321;48.796;44.740;2023-04-03T20:35:37;18.48;;;2.65;;
75700;SDS011;64321;48.796;44.740;2023-04-03T20:41:22;11.57;;;3.65;;
75700;SDS011;64321;48.796;44.740;2023-04-03T20:46:58;7.25;;;2.33;;
75700;SDS011;64321;48.796;44.740;2023-04-03T20:53:14;8.98;;;2.45;;
75700;SDS011;64321;48.796;44.740;2023-04-03T20:59:09;11.43;;;3.35;;
75700;SDS011;64321;48.796;44.740;2023-04-03T21:04:39;11.52;;;3.22;;
75700;SDS011;64321;48.796;44.740;2023-04-03T21:23:46;10.65;;;3.30;;
75700;SDS011;64321;48.796;44.740;2023-04-03T21:34:58;17.70;;;3.00;;
75700;SDS011;64321;48.796;44.740;2023-04-03T21:40:55;14.07;;;5.03;;
75700;SDS011;64321;48.796;44.740;2023-04-03T21:46:18;11.73;;;3.10;;
75700;SDS011;64321;48.796;44.740;2023-04-03T21:52:17;9.27;;;2.75;;
75700;SDS011;64321;48.796;44.740;2023-04-03T21:57:56;9.70;;;3.13;;
75700;SDS011;64321;48.796;44.740;2023-04-03T22:04:16;8.05;;;2.80;;
75700;SDS011;64321;48.796;44.740;2023-04-03T22:10:01;9.77;;;4.80;;
75700;SDS011;64321;48.796;44.740;2023-04-03T22:15:39;12.88;;;3.55;;
75700;SDS011;64321;48.796;44.740;2023-04-03T22:21:11;9.93;;;4.68;;
75700;SDS011;64321;48.796;44.740;2023-04-03T22:26:39;8.20;;;3.42;;
75700;SDS011;64321;48.796;44.740;2023-04-03T22:32:07;11.13;;;3.22;;
75700;SDS011;64321;48.796;44.740;2023-04-03T22:37:31;14.43;;;4.28;;
75700;SDS011;64321;48.796;44.740;2023-04-03T22:43:44;15.10;;;4.47;;
75700;SDS011;64321;48.796;44.740;2023-04-03T22:49:18;14.27;;;6.20;;
75700;SDS011;64321;48.796;44.740;2023-04-03T23:01:10;10.88;;;4.22;;
75700;SDS011;64321;48.796;44.740;2023-04-03T23:06:34;12.50;;;5.82;;
75700;SDS011;64321;48.796;44.740;2023-04-03T23:12:14;11.30;;;4.65;;
75700;SDS011;64321;48.796;44.740;2023-04-03T23:17:36;15.68;;;5.32;;
75700;SDS011;64321;48.796;44.740;2023-04-03T23:23:09;13.38;;;5.97;;
75700;SDS011;64321;48.796;44.740;2023-04-03T23:28:42;11.27;;;6.22;;
75700;SDS011;64321;48.796;44.740;2023-04-03T23:34:00;11.55;;;6.32;;
75700;SDS011;64321;48.796;44.740;2023-04-03T23:39:45;12.57;;;6.78;;
75700;SDS011;64321;48.796;44.740;2023-04-03T23:45:20;9.57;;;4.82;;
75700;SDS011;64321;48.796;44.740;2023-04-03T23:50:42;13.27;;;7.72;;
75700;SDS011;64321;48.796;44.740;2023-04-03T23:57:16;13.15;;;8.20;;
